Time;durP1;ratioP1;P1;durP2;ratioP2;P2;SDS_P1;SDS_P2;PMS_P1;PMS_P2;Temp;Humidity;BMP_temperature;BMP_pressure;BME280_temperature;BME280_humidity;BME280_pressure;Samples;Min_cycle;Max_cycle;Signal;HPM_P1;HPM_P2
2022/05/31 00:02:19;;;;;;;1.57;1.50;;;12.80;99.90;;;;;;4967119;28;20217;-45
2022/05/31 00:04:47;;;;;;;1.10;1.10;;;12.80;99.90;;;;;;4969463;28;20292;-45
2022/05/31 00:07:16;;;;;;;1.20;1.20;;;12.80;99.90;;;;;;4971894;28;20275;-45
2022/05/31 00:09:43;;;;;;;1.53;1.50;;;12.70;99.90;;;;;;4971141;28;20196;-45
2022/05/31 00:12:11;;;;;;;1.70;1.60;;;12.70;99.90;;;;;;4971434;28;20203;-45
2022/05/31 00:14:38;;;;;;;1.60;1.50;;;12.70;99.90;;;;;;4964401;28;20199;-45
2022/05/31 00:17:06;;;;;;;1.73;1.63;;;12.70;99.90;;;;;;4972479;28;20282;-45
2022/05/31 00:19:33;;;;;;;3.50;2.00;;;12.70;99.90;;;;;;4972176;28;20224;-46
2022/05/31 00:22:07;;;;;;;1.40;1.23;;;12.70;99.90;;;;;;4971246;28;20222;-46
2022/05/31 00:24:36;;;;;;;1.10;1.10;;;12.70;99.90;;;;;;4972172;28;20250;-46
2022/05/31 00:27:03;;;;;;;1.30;1.30;;;12.70;99.90;;;;;;4972371;28;20235;-46
2022/05/31 00:29:30;;;;;;;2.10;1.33;;;12.60;99.90;;;;;;4972028;28;20212;-46
2022/05/31 00:32:04;;;;;;;1.57;1.57;;;12.50;99.90;;;;;;4962793;28;20265;-46
2022/05/31 00:34:35;;;;;;;1.83;1.80;;;12.50;99.90;;;;;;4971412;28;20352;-45
2022/05/31 00:37:03;;;;;;;1.93;1.83;;;12.50;99.90;;;;;;4972231;28;20272;-46
2022/05/31 00:39:30;;;;;;;1.47;1.47;;;12.40;99.90;;;;;;4972266;28;20220;-45
2022/05/31 00:42:05;;;;;;;1.20;1.20;;;12.40;99.90;;;;;;4963387;28;20262;-46
2022/05/31 00:44:33;;;;;;;2.37;1.13;;;12.30;99.90;;;;;;4972337;28;20204;-46
2022/05/31 00:47:05;;;;;;;1.83;1.50;;;12.30;99.90;;;;;;4972839;28;20657;-46
2022/05/31 00:49:36;;;;;;;2.27;1.10;;;12.20;99.90;;;;;;4975881;28;20257;-46
2022/05/31 00:52:07;;;;;;;1.97;1.43;;;12.20;99.90;;;;;;4975437;28;20760;-46
2022/05/31 00:54:38;;;;;;;1.80;1.63;;;12.20;99.90;;;;;;4975048;28;20208;-45
2022/05/31 00:57:08;;;;;;;1.17;0.80;;;12.30;99.90;;;;;;4975434;28;20279;-46
2022/05/31 00:59:39;;;;;;;1.67;0.80;;;12.30;99.90;;;;;;4975344;28;20271;-46
2022/05/31 01:02:07;;;;;;;0.80;0.80;;;12.30;99.90;;;;;;4974911;28;20204;-46
2022/05/31 01:04:38;;;;;;;1.27;0.60;;;12.40;99.90;;;;;;4975341;28;20669;-46
2022/05/31 01:07:06;;;;;;;1.33;0.80;;;12.40;99.90;;;;;;4966503;28;20767;-46
2022/05/31 01:09:33;;;;;;;1.00;0.77;;;12.40;99.90;;;;;;4975241;28;20200;-45
2022/05/31 01:12:03;;;;;;;2.00;0.97;;;12.40;99.90;;;;;;4972307;28;20263;-46
2022/05/31 01:14:33;;;;;;;0.80;0.60;;;12.40;99.90;;;;;;4970267;28;20223;-46
2022/05/31 01:17:04;;;;;;;0.90;0.90;;;12.40;99.90;;;;;;4975173;28;20321;-46
2022/05/31 01:22:18;;;;;;;0.80;0.80;;;12.30;99.90;;;;;;4962592;28;20212;-46
2022/05/31 01:24:55;;;;;;;1.50;1.40;;;12.30;99.90;;;;;;4965318;28;20223;-45
2022/05/31 01:27:35;;;;;;;1.57;1.47;;;12.30;99.90;;;;;;4974917;28;20266;-46
2022/05/31 01:30:07;;;;;;;0.50;0.50;;;12.30;99.90;;;;;;4975159;28;20244;-46
2022/05/31 01:32:36;;;;;;;0.50;0.50;;;12.30;99.90;;;;;;4975026;28;20265;-45
2022/05/31 01:35:09;;;;;;;0.73;0.70;;;12.30;99.90;;;;;;4974753;28;20211;-46
2022/05/31 01:37:53;;;;;;;1.37;0.77;;;12.20;99.90;;;;;;4973332;28;20259;-46
2022/05/31 01:40:25;;;;;;;0.83;0.80;;;12.30;99.90;;;;;;4968231;28;20218;-45
2022/05/31 01:42:53;;;;;;;0.60;0.60;;;12.40;99.90;;;;;;4974522;28;20596;-46
2022/05/31 01:45:26;;;;;;;0.77;0.70;;;12.40;99.90;;;;;;4974520;28;20283;-46
2022/05/31 01:47:56;;;;;;;0.60;0.60;;;12.40;99.90;;;;;;4974846;28;20294;-46
2022/05/31 01:50:23;;;;;;;1.10;0.70;;;12.40;99.90;;;;;;4965373;28;20203;-46
2022/05/31 01:52:52;;;;;;;0.80;0.80;;;12.50;99.90;;;;;;4973169;28;20663;-46
2022/05/31 01:55:21;;;;;;;0.80;0.80;;;12.50;99.90;;;;;;4973597;28;20291;-46
2022/05/31 01:57:54;;;;;;;0.90;0.90;;;12.60;99.90;;;;;;4965446;28;20215;-46
2022/05/31 02:00:22;;;;;;;0.83;0.83;;;12.60;99.90;;;;;;4968209;28;20227;-45
2022/05/31 02:02:52;;;;;;;1.10;1.00;;;12.60;99.90;;;;;;4974300;28;20281;-46
2022/05/31 02:05:21;;;;;;;0.93;0.93;;;12.60;99.90;;;;;;4974032;28;20227;-46
2022/05/31 02:08:00;;;;;;;1.80;1.30;;;12.70;99.90;;;;;;4974057;28;20254;-45
2022/05/31 02:10:27;;;;;;;3.57;1.20;;;12.70;99.90;;;;;;4974304;28;20211;-45
2022/05/31 02:12:55;;;;;;;1.70;1.00;;;12.70;99.90;;;;;;4973947;28;20265;-45
2022/05/31 02:15:23;;;;;;;3.03;1.10;;;12.70;99.90;;;;;;4974088;28;20278;-46
2022/05/31 02:17:51;;;;;;;1.13;0.80;;;12.60;99.90;;;;;;5023039;23;20714;-50
2022/05/31 02:20:18;;;;;;;0.83;0.60;;;12.60;99.90;;;;;;5011150;28;20299;-51
2022/05/31 02:22:45;;;;;;;0.67;0.67;;;12.70;99.90;;;;;;5010744;28;20267;-51
2022/05/31 02:25:13;;;;;;;0.63;0.63;;;12.70;99.90;;;;;;5012796;28;20602;-50
2022/05/31 02:27:40;;;;;;;1.27;1.10;;;12.70;99.90;;;;;;5019830;28;20248;-50
2022/05/31 02:30:08;;;;;;;0.90;0.80;;;12.60;99.90;;;;;;5013049;28;20260;-50
2022/05/31 02:32:35;;;;;;;0.67;0.67;;;12.70;99.90;;;;;;5012649;28;20257;-51
2022/05/31 02:35:04;;;;;;;0.80;0.80;;;12.60;99.90;;;;;;5013975;28;20285;-51
2022/05/31 02:37:31;;;;;;;1.13;1.13;;;12.60;99.90;;;;;;5024346;28;20214;-50
2022/05/31 02:39:58;;;;;;;0.80;0.73;;;12.60;99.90;;;;;;5025543;28;20229;-50
2022/05/31 02:42:26;;;;;;;1.37;0.70;;;12.60;99.90;;;;;;5019819;28;20254;-50
2022/05/31 02:44:53;;;;;;;0.83;0.70;;;12.60;99.90;;;;;;5015898;28;20208;-50
2022/05/31 02:47:20;;;;;;;3.17;0.93;;;12.70;99.90;;;;;;5019638;28;20268;-51
2022/05/31 02:49:48;;;;;;;1.33;0.90;;;12.70;99.90;;;;;;5012553;28;20279;-51
2022/05/31 02:52:16;;;;;;;0.90;0.90;;;12.70;99.90;;;;;;5013470;28;20206;-50
2022/05/31 02:54:44;;;;;;;0.90;0.90;;;12.70;99.90;;;;;;5017441;28;20195;-50
2022/05/31 02:57:11;;;;;;;0.87;0.87;;;12.70;99.90;;;;;;5020116;28;20885;-51
2022/05/31 02:59:40;;;;;;;2.17;1.00;;;12.60;99.90;;;;;;5012468;28;20203;-51
2022/05/31 03:02:07;;;;;;;1.13;1.00;;;12.60;99.90;;;;;;5011259;28;20199;-50
2022/05/31 03:04:34;;;;;;;0.67;0.67;;;12.70;99.90;;;;;;5012402;28;20195;-50
2022/05/31 03:07:03;;;;;;;1.50;0.80;;;12.70;99.90;;;;;;5012620;28;20229;-50
2022/05/31 03:09:31;;;;;;;0.57;0.57;;;12.70;99.90;;;;;;5015981;28;20253;-50
2022/05/31 03:12:04;;;;;;;1.00;1.00;;;12.70;99.90;;;;;;5029146;28;20204;-51
2022/05/31 03:14:36;;;;;;;0.70;0.70;;;12.60;99.90;;;;;;5018908;28;20197;-50
2022/05/31 03:17:11;;;;;;;1.70;0.80;;;12.60;99.90;;;;;;5024797;28;20234;-50
2022/05/31 03:19:41;;;;;;;1.60;0.50;;;12.70;99.90;;;;;;5015000;28;20675;-51
2022/05/31 03:22:13;;;;;;;0.70;0.70;;;12.70;99.90;;;;;;5018243;28;20572;-50
2022/05/31 03:24:44;;;;;;;1.00;0.60;;;12.60;99.90;;;;;;5018979;28;20872;-51
2022/05/31 03:27:12;;;;;;;4.33;0.87;;;12.60;99.90;;;;;;5016294;28;20299;-51
2022/05/31 03:29:45;;;;;;;1.77;1.07;;;12.60;99.90;;;;;;5012122;28;20209;-50
2022/05/31 03:32:15;;;;;;;0.70;0.70;;;12.70;99.90;;;;;;5015959;28;20196;-50
2022/05/31 03:34:42;;;;;;;0.50;0.50;;;12.70;99.90;;;;;;5023504;28;20241;-51
2022/05/31 03:37:09;;;;;;;0.83;0.83;;;12.70;99.90;;;;;;5010792;28;20227;-50
2022/05/31 03:39:36;;;;;;;1.10;1.10;;;12.80;99.90;;;;;;5018481;28;20746;-50
2022/05/31 03:42:07;;;;;;;1.60;1.17;;;12.80;99.90;;;;;;5020766;28;20226;-50
2022/05/31 03:44:34;;;;;;;0.60;0.60;;;12.80;99.90;;;;;;5015715;28;20199;-51
2022/05/31 03:47:06;;;;;;;1.03;0.50;;;12.90;99.90;;;;;;5017728;28;20225;-51
2022/05/31 03:49:35;;;;;;;1.37;0.63;;;12.90;99.90;;;;;;5020879;28;20195;-51
2022/05/31 03:52:02;;;;;;;1.13;0.60;;;13.00;99.90;;;;;;5022615;28;20238;-50
2022/05/31 03:54:30;;;;;;;1.50;0.80;;;12.90;99.90;;;;;;5014289;28;20209;-52
2022/05/31 03:56:57;;;;;;;0.70;0.70;;;12.90;99.90;;;;;;5011546;28;20793;-50
2022/05/31 03:59:24;;;;;;;0.67;0.60;;;13.00;99.90;;;;;;5010969;28;20253;-49
2022/05/31 04:01:51;;;;;;;0.67;0.67;;;13.00;99.90;;;;;;5010774;28;20226;-49
2022/05/31 04:04:18;;;;;;;0.73;0.50;;;13.00;99.90;;;;;;5018641;28;20203;-50
2022/05/31 04:06:47;;;;;;;0.73;0.73;;;12.90;99.90;;;;;;5015641;28;20234;-50
2022/05/31 04:09:14;;;;;;;7.03;0.70;;;12.90;99.90;;;;;;5017327;28;20231;-50
2022/05/31 04:11:41;;;;;;;0.60;0.60;;;12.90;99.90;;;;;;5011461;28;20286;-50
2022/05/31 04:14:08;;;;;;;0.70;0.70;;;12.90;99.90;;;;;;5020338;28;20198;-50
2022/05/31 04:16:35;;;;;;;1.47;0.63;;;12.90;99.90;;;;;;5014303;28;20247;-50
2022/05/31 04:19:03;;;;;;;1.33;0.80;;;12.90;99.90;;;;;;5019172;28;20730;-52
2022/05/31 04:21:30;;;;;;;0.73;0.73;;;12.90;99.90;;;;;;5027394;28;20231;-49
2022/05/31 04:23:59;;;;;;;0.60;0.60;;;13.00;99.90;;;;;;5023061;28;20735;-50
2022/05/31 04:26:26;;;;;;;0.60;0.60;;;13.00;99.90;;;;;;5021774;28;20356;-50
2022/05/31 04:28:54;;;;;;;0.83;0.83;;;13.00;99.90;;;;;;5022083;28;20256;-50
2022/05/31 04:31:21;;;;;;;0.93;0.93;;;12.90;99.90;;;;;;5019965;28;20649;-50
2022/05/31 04:33:48;;;;;;;1.50;1.40;;;12.90;99.90;;;;;;5017895;28;20261;-50
2022/05/31 04:36:18;;;;;;;1.60;1.47;;;12.80;99.90;;;;;;5012652;28;20227;-50
2022/05/31 04:38:45;;;;;;;1.83;1.27;;;12.70;99.90;;;;;;5019367;28;20381;-51
2022/05/31 04:41:19;;;;;;;3.07;1.70;;;12.70;99.90;;;;;;5022548;28;20221;-51
2022/05/31 04:43:47;;;;;;;2.20;1.23;;;12.60;99.90;;;;;;5007591;28;20209;-51
2022/05/31 04:46:16;;;;;;;5.53;1.33;;;12.50;99.90;;;;;;5002780;28;20214;-50
2022/05/31 04:48:44;;;;;;;3.70;1.53;;;12.50;99.90;;;;;;5000720;28;20202;-51
2022/05/31 04:51:11;;;;;;;1.10;1.10;;;12.50;99.90;;;;;;5002862;28;20209;-51
2022/05/31 04:53:38;;;;;;;1.77;1.10;;;12.50;99.90;;;;;;5009843;28;20201;-50
2022/05/31 04:56:08;;;;;;;1.90;1.30;;;12.40;99.90;;;;;;5008429;28;20209;-51
2022/05/31 04:58:36;;;;;;;1.20;1.10;;;12.40;99.90;;;;;;5010413;28;20258;-50
2022/05/31 05:01:06;;;;;;;1.40;1.10;;;12.40;99.90;;;;;;5003251;28;20283;-51
2022/05/31 05:03:34;;;;;;;1.60;1.13;;;12.30;99.90;;;;;;5012037;28;20193;-51
2022/05/31 05:06:01;;;;;;;3.37;1.37;;;12.30;99.90;;;;;;5013048;28;20195;-50
2022/05/31 05:08:29;;;;;;;2.53;2.33;;;12.30;99.90;;;;;;5011000;28;20199;-50
2022/05/31 05:10:57;;;;;;;2.20;1.33;;;12.30;99.90;;;;;;5008746;28;20855;-50
2022/05/31 05:13:24;;;;;;;1.50;1.50;;;12.30;99.90;;;;;;5016732;28;20669;-51
2022/05/31 05:15:54;;;;;;;2.17;1.60;;;12.30;99.90;;;;;;4997974;28;20643;-51
2022/05/31 05:18:22;;;;;;;2.57;1.40;;;12.40;99.90;;;;;;5000928;28;20632;-50
2022/05/31 05:20:50;;;;;;;1.47;1.37;;;12.50;99.90;;;;;;5001780;28;20226;-50
2022/05/31 05:23:17;;;;;;;2.73;1.80;;;12.60;99.90;;;;;;5004824;28;20619;-50
2022/05/31 05:25:49;;;;;;;1.37;1.27;;;12.70;99.90;;;;;;4998086;28;20195;-50
2022/05/31 05:31:02;;;;;;;2.30;1.77;;;12.80;99.90;;;;;;5005119;28;20206;-50
2022/05/31 05:33:30;;;;;;;2.17;1.10;;;12.80;99.90;;;;;;4997087;28;20249;-50
2022/05/31 05:35:58;;;;;;;1.80;1.00;;;12.90;99.90;;;;;;5002055;28;20206;-50
2022/05/31 05:38:25;;;;;;;1.17;0.97;;;13.00;99.90;;;;;;5004382;28;20206;-50
2022/05/31 05:40:52;;;;;;;1.60;1.47;;;13.20;99.90;;;;;;4999506;28;20231;-50
2022/05/31 05:43:19;;;;;;;1.00;1.00;;;13.30;99.90;;;;;;5004395;28;20202;-50
2022/05/31 05:45:46;;;;;;;1.20;1.20;;;13.40;99.90;;;;;;5007529;28;20205;-50
2022/05/31 05:48:15;;;;;;;1.83;1.37;;;13.80;99.90;;;;;;5024309;28;20267;-51
2022/05/31 05:50:42;;;;;;;0.80;0.80;;;14.90;99.90;;;;;;5016573;28;20241;-50
2022/05/31 05:53:10;;;;;;;1.20;1.20;;;15.40;99.90;;;;;;4999441;28;20204;-50
2022/05/31 05:55:38;;;;;;;1.13;1.13;;;15.60;99.90;;;;;;4999606;28;20322;-51
2022/05/31 05:58:08;;;;;;;1.80;1.60;;;16.50;99.90;;;;;;5004584;28;20460;-51
2022/05/31 06:00:37;;;;;;;1.33;1.23;;;16.40;99.90;;;;;;5005106;28;20207;-50
2022/05/31 06:03:10;;;;;;;5.90;1.33;;;16.00;99.90;;;;;;5010782;28;20206;-51
2022/05/31 06:05:40;;;;;;;0.90;0.90;;;15.60;99.90;;;;;;5011259;28;20195;-50
2022/05/31 06:08:10;;;;;;;1.33;1.33;;;15.30;99.90;;;;;;5007174;28;20314;-50
2022/05/31 06:10:42;;;;;;;2.13;2.03;;;15.80;99.90;;;;;;5006498;28;20208;-50
2022/05/31 06:13:15;;;;;;;1.50;1.50;;;15.50;99.90;;;;;;5014242;28;20199;-50
2022/05/31 06:15:44;;;;;;;1.43;1.33;;;15.30;99.90;;;;;;5013752;28;20211;-50
2022/05/31 06:18:15;;;;;;;1.17;1.13;;;15.00;99.90;;;;;;5012513;28;20285;-50
2022/05/31 06:20:48;;;;;;;2.77;1.30;;;14.70;99.90;;;;;;5009326;28;20199;-50
2022/05/31 06:23:15;;;;;;;1.60;1.50;;;14.60;99.90;;;;;;5020654;28;20195;-50
2022/05/31 06:25:42;;;;;;;1.43;1.43;;;14.50;99.90;;;;;;5011391;28;20199;-50
2022/05/31 06:28:09;;;;;;;1.33;1.23;;;14.40;99.90;;;;;;5018076;28;20281;-50
2022/05/31 06:30:37;;;;;;;3.57;1.50;;;14.30;99.90;;;;;;5019762;28;20253;-51
2022/05/31 06:33:05;;;;;;;5.67;1.10;;;14.40;99.90;;;;;;5019261;28;20203;-50
2022/05/31 06:35:32;;;;;;;1.13;1.10;;;14.40;99.90;;;;;;5010438;28;20199;-50
2022/05/31 06:38:01;;;;;;;0.93;0.93;;;14.50;99.90;;;;;;5012237;28;20226;-51
2022/05/31 06:40:28;;;;;;;1.87;1.13;;;14.60;99.90;;;;;;5017331;28;20289;-51
2022/05/31 06:42:56;;;;;;;3.83;2.57;;;14.60;99.90;;;;;;5016682;28;20230;-50
2022/05/31 06:45:23;;;;;;;2.10;2.00;;;14.70;99.90;;;;;;5010655;28;20203;-51
2022/05/31 06:47:50;;;;;;;1.10;1.10;;;14.80;99.90;;;;;;5008899;28;20296;-51
2022/05/31 06:50:17;;;;;;;0.90;0.90;;;15.80;99.90;;;;;;5014222;28;20553;-50
2022/05/31 06:58:14;;;;;;;1.43;1.43;;;19.30;99.90;;;;;;5014540;28;20237;-51
2022/05/31 07:00:41;;;;;;;1.20;1.20;;;19.40;99.90;;;;;;5012520;28;20249;-50
2022/05/31 07:03:08;;;;;;;1.80;1.10;;;20.20;99.90;;;;;;5011403;28;20218;-51
2022/05/31 07:05:35;;;;;;;1.97;1.70;;;20.50;99.90;;;;;;5016665;28;20259;-51
2022/05/31 07:08:02;;;;;;;1.37;1.30;;;19.90;99.90;;;;;;5014239;28;20222;-51
2022/05/31 07:10:30;;;;;;;4.83;1.20;;;19.40;99.90;;;;;;5010424;28;20194;-51
2022/05/31 07:12:57;;;;;;;1.37;1.27;;;18.80;99.90;;;;;;4998108;28;20207;-51
2022/05/31 07:15:26;;;;;;;1.10;1.10;;;18.50;99.90;;;;;;4998161;28;20196;-51
2022/05/31 07:17:53;;;;;;;1.30;1.20;;;18.00;99.90;;;;;;4993453;28;20290;-51
2022/05/31 07:20:20;;;;;;;0.90;0.80;;;17.70;99.90;;;;;;5002394;28;20206;-51
2022/05/31 07:22:47;;;;;;;1.13;1.13;;;17.40;99.90;;;;;;5006893;28;20309;-51
2022/05/31 07:25:14;;;;;;;1.93;1.10;;;17.00;99.90;;;;;;4993794;28;20196;-51
2022/05/31 07:27:42;;;;;;;0.90;0.90;;;16.70;99.90;;;;;;4998771;28;20619;-50
2022/05/31 07:30:10;;;;;;;5.20;1.20;;;16.50;99.90;;;;;;5002181;28;20264;-50
2022/05/31 07:32:37;;;;;;;3.70;2.03;;;16.30;99.90;;;;;;4992290;28;20609;-51
2022/05/31 07:35:04;;;;;;;3.03;1.47;;;16.20;99.90;;;;;;5005877;28;20262;-50
2022/05/31 07:37:31;;;;;;;2.10;2.00;;;16.10;99.90;;;;;;5014914;28;20273;-51
2022/05/31 07:39:58;;;;;;;1.47;1.30;;;16.10;99.90;;;;;;4995032;28;20266;-51
2022/05/31 07:42:25;;;;;;;1.70;1.70;;;16.30;99.90;;;;;;4991932;28;20208;-51
2022/05/31 07:44:55;;;;;;;2.60;1.63;;;16.50;99.90;;;;;;5000298;28;20223;-51
2022/05/31 07:47:22;;;;;;;3.60;1.33;;;16.70;99.90;;;;;;5004315;28;20222;-51
2022/05/31 07:49:49;;;;;;;1.60;1.60;;;17.00;99.90;;;;;;5007268;28;20199;-51
2022/05/31 07:52:18;;;;;;;1.20;1.20;;;17.80;99.90;;;;;;5001245;28;20195;-50
2022/05/31 07:54:45;;;;;;;1.47;1.37;;;18.30;99.90;;;;;;5007480;28;20283;-51
2022/05/31 07:58:30;;;;;;;2.77;1.80;;;18.50;99.90;;;;;;5001285;28;20703;-51
2022/05/31 08:00:01;;;;;;;3.03;1.37;;;18.90;99.90;;;;;;4996609;28;20625;-51
2022/05/31 08:02:28;;;;;;;3.60;0.90;;;19.80;99.90;;;;;;5011494;28;20239;-51
2022/05/31 08:04:55;;;;;;;4.60;2.27;;;19.90;99.90;;;;;;5008343;28;20619;-51
2022/05/31 08:07:22;;;;;;;1.73;1.30;;;20.00;99.90;;;;;;4994922;28;20277;-51
2022/05/31 08:09:49;;;;;;;2.50;1.30;;;20.20;99.90;;;;;;4998842;28;20269;-51
2022/05/31 08:12:16;;;;;;;1.67;1.57;;;20.00;99.90;;;;;;5000103;28;20254;-51
2022/05/31 08:14:43;;;;;;;2.80;1.80;;;19.80;99.90;;;;;;4998492;28;20196;-51
2022/05/31 08:17:11;;;;;;;3.07;1.47;;;19.40;99.90;;;;;;4997619;28;20657;-51
2022/05/31 08:19:39;;;;;;;2.23;1.67;;;19.10;99.90;;;;;;5007625;28;20203;-51
2022/05/31 08:22:06;;;;;;;2.00;1.00;;;19.10;99.90;;;;;;5009844;28;20234;-51
2022/05/31 08:24:34;;;;;;;2.23;1.60;;;19.00;99.90;;;;;;4995210;28;20196;-51
2022/05/31 08:27:04;;;;;;;1.50;1.47;;;19.00;99.90;;;;;;5005201;28;20232;-51
2022/05/31 08:29:32;;;;;;;2.40;2.30;;;19.10;99.90;;;;;;4999148;28;20206;-51
2022/05/31 08:31:59;;;;;;;2.77;1.63;;;19.70;99.90;;;;;;5009064;28;20195;-51
2022/05/31 08:34:29;;;;;;;1.30;1.30;;;19.80;99.90;;;;;;5011950;28;20199;-50
2022/05/31 08:36:58;;;;;;;1.30;1.30;;;19.70;99.90;;;;;;5013501;28;20277;-52
2022/05/31 08:39:25;;;;;;;1.97;1.70;;;19.20;99.90;;;;;;5046563;23;20364;-46
2022/05/31 08:41:57;;;;;;;2.93;1.40;;;19.20;99.90;;;;;;5033253;28;20215;-46
2022/05/31 08:44:45;;;;;;;3.23;2.00;;;19.20;99.90;;;;;;5017861;28;20297;-46
2022/05/31 08:47:20;;;;;;;1.70;1.63;;;19.40;99.90;;;;;;5029848;28;20602;-46
2022/05/31 08:53:05;;;;;;;1.07;1.07;;;19.90;99.90;;;;;;4991516;28;20686;-46
2022/05/31 08:58:29;;;;;;;1.40;1.30;;;20.30;99.90;;;;;;5020142;28;20202;-46
2022/05/31 09:00:58;;;;;;;2.57;2.07;;;20.40;99.90;;;;;;5034388;28;20225;-46
2022/05/31 09:03:29;;;;;;;2.77;1.57;;;20.20;99.90;;;;;;5045753;28;20220;-46
2022/05/31 09:06:05;;;;;;;5.23;2.50;;;20.10;99.90;;;;;;5043410;28;20206;-46
2022/05/31 09:08:38;;;;;;;3.03;2.70;;;20.40;99.90;;;;;;5036991;28;20232;-46
2022/05/31 09:11:11;;;;;;;3.53;1.90;;;21.40;99.90;;;;;;5034351;28;20210;-46
2022/05/31 09:13:43;;;;;;;2.20;1.93;;;21.90;99.90;;;;;;5034257;28;20254;-47
2022/05/31 09:16:17;;;;;;;3.90;2.10;;;22.40;99.90;;;;;;5033202;28;20580;-46
2022/05/31 09:18:50;;;;;;;2.37;2.20;;;22.30;99.90;;;;;;5035047;28;20250;-47
2022/05/31 09:21:25;;;;;;;2.60;2.37;;;22.10;99.90;;;;;;5034994;28;20210;-47
2022/05/31 09:23:52;;;;;;;1.80;1.70;;;22.10;99.90;;;;;;5036792;28;20587;-47
2022/05/31 09:26:51;;;;;;;2.10;2.00;;;21.70;99.90;;;;;;5039596;28;20194;-47
2022/05/31 09:29:21;;;;;;;1.87;1.73;;;21.60;99.90;;;;;;5033201;28;20254;-47
2022/05/31 09:32:02;;;;;;;1.70;1.60;;;21.30;99.90;;;;;;5036140;28;20739;-47
2022/05/31 09:34:48;;;;;;;1.73;1.63;;;21.00;99.90;;;;;;5031721;28;20198;-47
2022/05/31 09:37:34;;;;;;;4.07;2.53;;;21.00;99.90;;;;;;5037628;28;20239;-47
2022/05/31 09:40:17;;;;;;;3.90;1.93;;;20.80;99.90;;;;;;5035888;28;20284;-47
2022/05/31 09:42:54;;;;;;;2.20;2.10;;;20.80;99.90;;;;;;5029492;28;20758;-46
2022/05/31 09:45:22;;;;;;;2.03;1.83;;;20.90;99.90;;;;;;5033986;28;20210;-46
2022/05/31 09:47:51;;;;;;;4.60;1.67;;;20.70;99.90;;;;;;5033936;28;20230;-46
2022/05/31 09:50:25;;;;;;;2.10;1.77;;;20.90;99.90;;;;;;5026136;28;20228;-46
2022/05/31 09:52:56;;;;;;;2.50;2.00;;;20.90;99.90;;;;;;5031290;28;20204;-46
2022/05/31 09:58:36;;;;;;;2.30;2.07;;;21.20;99.90;;;;;;5003741;28;20211;-46
2022/05/31 10:01:16;;;;;;;2.50;2.30;;;21.50;99.90;;;;;;5010999;28;20203;-46
2022/05/31 10:03:46;;;;;;;2.20;1.90;;;21.90;99.90;;;;;;5021936;28;20267;-46
2022/05/31 10:06:16;;;;;;;3.87;3.57;;;22.40;99.90;;;;;;5031085;28;20734;-46
2022/05/31 10:08:47;;;;;;;4.30;4.00;;;22.40;99.90;;;;;;5027415;28;20280;-46
2022/05/31 10:11:21;;;;;;;4.57;4.27;;;22.30;99.90;;;;;;5031622;28;20212;-45
2022/05/31 10:13:57;;;;;;;4.90;3.70;;;22.10;99.90;;;;;;5039079;28;20248;-46
2022/05/31 10:16:26;;;;;;;4.37;4.17;;;22.30;99.90;;;;;;5030289;28;20256;-46
2022/05/31 10:18:55;;;;;;;4.10;3.90;;;22.50;99.90;;;;;;5032411;28;20219;-46
2022/05/31 10:21:34;;;;;;;4.43;4.20;;;22.80;99.90;;;;;;5031418;28;20244;-46
2022/05/31 10:24:15;;;;;;;4.63;4.33;;;22.70;99.90;;;;;;5033505;28;20214;-46
2022/05/31 10:26:43;;;;;;;4.63;4.30;;;22.20;99.90;;;;;;5034187;28;20194;-46
2022/05/31 10:29:20;;;;;;;4.93;4.63;;;22.40;99.90;;;;;;5031965;28;20218;-46
2022/05/31 10:31:48;;;;;;;5.23;4.93;;;22.80;99.90;;;;;;5027826;28;20738;-46
2022/05/31 10:34:44;;;;;;;4.93;4.63;;;22.90;99.90;;;;;;5031034;28;20206;-46
2022/05/31 10:37:25;;;;;;;4.87;4.53;;;22.70;99.90;;;;;;4995527;28;20195;-46
2022/05/31 10:40:04;;;;;;;4.53;4.17;;;22.30;99.90;;;;;;5033622;28;20261;-46
2022/05/31 10:42:37;;;;;;;4.80;4.60;;;22.30;99.90;;;;;;5033251;28;20280;-46
2022/05/31 10:45:06;;;;;;;4.47;4.17;;;22.30;99.90;;;;;;5039400;28;20205;-46
2022/05/31 10:47:34;;;;;;;5.07;4.63;;;22.20;99.90;;;;;;5032036;28;20194;-46
2022/05/31 10:50:07;;;;;;;3.70;3.50;;;22.20;99.90;;;;;;5041353;28;20286;-47
2022/05/31 10:52:41;;;;;;;4.30;4.00;;;22.20;99.90;;;;;;5036249;28;20206;-46
2022/05/31 10:55:32;;;;;;;4.30;4.00;;;22.40;99.90;;;;;;5043899;28;20214;-46
2022/05/31 10:58:12;;;;;;;4.00;3.80;;;22.60;99.90;;;;;;5029893;28;21918;-46
2022/05/31 11:00:48;;;;;;;3.77;3.67;;;22.80;99.90;;;;;;5030417;28;20205;-46
2022/05/31 11:03:23;;;;;;;4.60;4.20;;;22.60;99.90;;;;;;5041907;28;20259;-47
2022/05/31 11:06:29;;;;;;;4.13;3.83;;;22.80;99.90;;;;;;5048733;28;20255;-47
2022/05/31 11:12:07;;;;;;;4.60;4.17;;;22.90;99.90;;;;;;5040519;28;20201;-46
2022/05/31 11:15:05;;;;;;;3.67;3.47;;;22.90;99.90;;;;;;5038973;28;20691;-46
2022/05/31 11:18:07;;;;;;;3.27;3.17;;;22.70;99.90;;;;;;5012136;28;20195;-46
2022/05/31 11:20:41;;;;;;;3.00;2.80;;;22.70;99.90;;;;;;5014112;28;20225;-46
2022/05/31 11:23:26;;;;;;;3.67;3.53;;;22.90;99.90;;;;;;5042247;28;20618;-47
2022/05/31 11:26:07;;;;;;;2.60;2.40;;;22.90;99.90;;;;;;5033888;28;20202;-47
2022/05/31 11:29:03;;;;;;;3.87;2.40;;;23.10;99.90;;;;;;5031253;28;20225;-46
2022/05/31 11:31:43;;;;;;;3.23;1.93;;;23.30;99.90;;;;;;5031349;28;20198;-47
2022/05/31 11:34:24;;;;;;;2.53;2.30;;;23.40;99.90;;;;;;5036903;28;20629;-47
2022/05/31 11:37:07;;;;;;;2.73;2.10;;;23.50;99.90;;;;;;5044239;28;20251;-47
2022/05/31 11:39:57;;;;;;;2.83;2.63;;;23.70;99.90;;;;;;5038909;28;20230;-47
2022/05/31 11:42:41;;;;;;;3.43;2.97;;;23.60;99.90;;;;;;5027174;28;20252;-47
2022/05/31 11:45:15;;;;;;;2.50;2.40;;;23.50;99.90;;;;;;5050891;28;20232;-47
2022/05/31 11:48:18;;;;;;;2.80;2.70;;;23.10;99.90;;;;;;5044608;28;20272;-46
2022/05/31 11:50:53;;;;;;;2.87;2.70;;;23.00;99.90;;;;;;5038087;28;20198;-46
2022/05/31 11:53:46;;;;;;;2.97;2.50;;;23.10;99.90;;;;;;5032965;28;20194;-46
2022/05/31 11:56:20;;;;;;;3.30;3.10;;;23.20;99.90;;;;;;5030044;28;20201;-47
2022/05/31 11:58:52;;;;;;;3.40;3.03;;;23.20;99.90;;;;;;5042345;28;20225;-46
2022/05/31 12:01:25;;;;;;;5.93;3.00;;;23.10;99.90;;;;;;5047251;28;20244;-46
2022/05/31 12:04:02;;;;;;;6.30;3.37;;;23.20;99.90;;;;;;5043070;28;20639;-46
2022/05/31 12:06:38;;;;;;;2.70;2.50;;;23.00;99.90;;;;;;5044807;28;20206;-46
2022/05/31 12:09:14;;;;;;;2.63;2.50;;;23.00;99.90;;;;;;5030857;28;20217;-47
2022/05/31 12:11:48;;;;;;;6.33;3.33;;;23.00;99.90;;;;;;5044403;28;20225;-46
2022/05/31 12:14:16;;;;;;;2.17;2.07;;;22.90;99.90;;;;;;5027545;28;20762;-47
2022/05/31 12:16:46;;;;;;;3.33;2.43;;;22.70;99.90;;;;;;5036630;28;20652;-46
2022/05/31 12:19:23;;;;;;;6.90;2.20;;;22.50;99.90;;;;;;5038176;28;20219;-46
2022/05/31 12:21:55;;;;;;;2.13;1.93;;;22.30;99.90;;;;;;5037431;28;20195;-47
2022/05/31 12:24:28;;;;;;;3.30;2.73;;;22.10;99.90;;;;;;5033093;28;20692;-46
2022/05/31 12:27:01;;;;;;;2.77;1.90;;;22.10;99.90;;;;;;5039668;28;20213;-46
2022/05/31 12:29:33;;;;;;;3.67;2.07;;;21.90;99.90;;;;;;5027440;28;20305;-46
2022/05/31 12:32:27;;;;;;;4.20;2.40;;;21.70;99.90;;;;;;5030781;28;20194;-46
2022/05/31 12:34:55;;;;;;;7.43;2.33;;;21.50;99.90;;;;;;5028829;28;20202;-46
2022/05/31 12:37:22;;;;;;;2.30;2.17;;;21.20;99.90;;;;;;5032064;28;20209;-46
2022/05/31 12:39:50;;;;;;;5.03;3.03;;;21.10;99.90;;;;;;5036221;28;20724;-46
2022/05/31 12:42:48;;;;;;;5.43;2.47;;;21.20;99.90;;;;;;5033499;28;20281;-45
2022/05/31 12:45:40;;;;;;;2.80;2.60;;;21.20;99.90;;;;;;4968251;28;20240;-46
2022/05/31 12:48:20;;;;;;;3.50;2.83;;;21.20;99.90;;;;;;5025156;28;20194;-46
2022/05/31 12:51:08;;;;;;;2.53;2.43;;;21.10;99.90;;;;;;5039897;28;20206;-46
2022/05/31 12:54:14;;;;;;;3.07;1.40;;;20.90;99.90;;;;;;5033301;28;20195;-46
2022/05/31 12:57:02;;;;;;;1.87;1.10;;;20.60;99.90;;;;;;5004088;28;20249;-46
2022/05/31 13:00:02;;;;;;;0.83;0.83;;;20.40;99.90;;;;;;5025532;28;20218;-46
2022/05/31 13:02:39;;;;;;;2.10;0.90;;;20.40;99.90;;;;;;4968631;28;20260;-46
2022/05/31 13:05:37;;;;;;;3.80;1.00;;;20.40;99.90;;;;;;4971247;28;20220;-46
2022/05/31 13:08:14;;;;;;;7.17;1.30;;;20.40;99.90;;;;;;5012235;28;20240;-46
2022/05/31 13:19:34;;;;;;;1.57;1.10;;;20.40;99.90;;;;;;5029528;28;20190;-46
2022/05/31 13:22:02;;;;;;;2.40;0.93;;;20.40;99.90;;;;;;5032356;28;20201;-46
2022/05/31 13:24:30;;;;;;;2.17;1.10;;;20.40;99.90;;;;;;5032062;28;20580;-46
2022/05/31 13:26:59;;;;;;;2.00;1.10;;;20.30;99.90;;;;;;5032987;28;20253;-46
2022/05/31 13:29:27;;;;;;;2.53;1.30;;;20.50;99.90;;;;;;5034972;28;20214;-46
2022/05/31 13:32:00;;;;;;;3.73;1.10;;;20.40;99.90;;;;;;5035210;28;20195;-46
2022/05/31 13:34:31;;;;;;;2.97;1.33;;;20.30;99.90;;;;;;5028255;28;20228;-46
2022/05/31 13:37:04;;;;;;;4.80;1.20;;;20.10;99.90;;;;;;5032417;28;20194;-46
2022/05/31 13:39:40;;;;;;;2.43;1.20;;;20.10;99.90;;;;;;5033840;28;20229;-46
2022/05/31 13:42:18;;;;;;;0.80;0.80;;;20.10;99.90;;;;;;5030933;28;20251;-46
2022/05/31 13:44:46;;;;;;;2.63;1.40;;;20.10;99.90;;;;;;5034211;28;20226;-46